createdAt,value
2022-08-09T00:00:07.967Z,19.17
2022-08-09T00:02:49.301Z,19.15
2022-08-09T00:06:17.779Z,19.13
2022-08-09T00:08:11.389Z,19.11
2022-08-09T00:10:58.828Z,19.10
2022-08-09T00:13:25.532Z,19.04
2022-08-09T00:15:59.799Z,19.03
2022-08-09T00:18:34.611Z,19.01
2022-08-09T00:21:05.002Z,19.01
2022-08-09T00:23:58.135Z,19.00
2022-08-09T00:26:19.351Z,18.98
2022-08-09T00:28:58.393Z,18.98
2022-08-09T00:31:55.749Z,18.98
2022-08-09T00:34:13.667Z,18.94
2022-08-09T00:36:41.617Z,18.90
2022-08-09T00:39:16.957Z,18.92
2022-08-09T00:44:10.959Z,18.93
2022-08-09T00:44:46.860Z,18.93
2022-08-09T00:47:15.502Z,18.92
2022-08-09T00:49:43.684Z,18.94
2022-08-09T00:52:19.691Z,18.93
2022-08-09T00:54:48.567Z,18.95
2022-08-09T00:57:24.796Z,18.95
2022-08-09T01:00:02.975Z,18.93
2022-08-09T01:02:33.943Z,18.91
2022-08-09T01:05:51.570Z,18.87
2022-08-09T01:08:48.865Z,18.83
2022-08-09T01:11:53.076Z,18.80
2022-08-09T01:14:25.157Z,18.76
2022-08-09T01:16:58.882Z,18.75
2022-08-09T01:20:02.618Z,18.77
2022-08-09T01:23:00.832Z,18.74
2022-08-09T01:25:55.998Z,18.73
2022-08-09T01:28:26.006Z,18.66
2022-08-09T01:30:55.561Z,18.61
2022-08-09T01:33:29.879Z,18.60
2022-08-09T01:36:05.567Z,18.59
2022-08-09T01:38:38.491Z,18.66
2022-08-09T01:41:14.892Z,18.73
2022-08-09T01:43:51.799Z,18.76
2022-08-09T01:46:42.483Z,18.77
2022-08-09T01:49:17.018Z,18.78
2022-08-09T01:51:53.117Z,18.80
2022-08-09T01:54:39.487Z,18.80
2022-08-09T01:57:14.849Z,18.80
2022-08-09T01:59:51.919Z,18.80
2022-08-09T02:02:23.141Z,18.82
2022-08-09T02:05:04.052Z,18.88
2022-08-09T02:08:38.900Z,18.89
2022-08-09T02:10:30.041Z,18.95
2022-08-09T02:13:04.159Z,18.99
2022-08-09T02:15:48.748Z,18.96
2022-08-09T02:18:20.621Z,18.92
2022-08-09T02:21:00.273Z,18.93
2022-08-09T02:23:40.120Z,18.91
2022-08-09T02:26:26.846Z,18.91
2022-08-09T02:28:59.633Z,18.95
2022-08-09T02:31:37.807Z,18.94
2022-08-09T02:34:13.175Z,18.95
2022-08-09T02:36:47.021Z,18.97
2022-08-09T02:39:33.801Z,18.95
2022-08-09T02:42:10.580Z,18.94
2022-08-09T02:44:48.289Z,18.90
2022-08-09T02:47:17.511Z,18.84
2022-08-09T02:50:06.307Z,18.77
2022-08-09T02:53:05.063Z,18.80
2022-08-09T02:55:46.126Z,18.86
2022-08-09T02:58:35.388Z,18.87
2022-08-09T03:01:08.103Z,18.85
2022-08-09T03:03:59.619Z,18.80
2022-08-09T03:06:27.706Z,18.74
2022-08-09T03:08:56.380Z,18.72
2022-08-09T03:12:05.239Z,18.68
2022-08-09T03:14:12.084Z,18.63
2022-08-09T03:16:41.995Z,18.60
2022-08-09T03:19:59.239Z,18.57
2022-08-09T03:22:04.646Z,18.55
2022-08-09T03:24:42.584Z,18.50
2022-08-09T03:27:21.517Z,18.48
2022-08-09T03:29:57.958Z,18.48
2022-08-09T03:32:31.118Z,18.47
2022-08-09T03:34:59.692Z,18.43
2022-08-09T03:37:58.302Z,18.41
2022-08-09T03:40:17.934Z,18.38
2022-08-09T03:42:46.683Z,18.35
2022-08-09T03:45:14.193Z,18.34
2022-08-09T03:47:46.823Z,18.31
2022-08-09T03:50:18.712Z,18.32
2022-08-09T03:52:58.144Z,18.30
2022-08-09T03:55:26.996Z,18.29
2022-08-09T03:58:06.561Z,18.30
2022-08-09T04:00:44.314Z,18.26
2022-08-09T04:03:15.359Z,18.23
2022-08-09T04:05:51.811Z,18.19
2022-08-09T04:08:18.472Z,18.13
2022-08-09T04:10:55.651Z,18.07
2022-08-09T04:14:37.762Z,18.02
2022-08-09T04:16:19.441Z,18.03
2022-08-09T04:18:47.962Z,18.03
2022-08-09T04:21:17.750Z,18.02
2022-08-09T04:23:54.496Z,18.00
2022-08-09T04:26:37.876Z,17.96
2022-08-09T04:29:10.915Z,17.91
2022-08-09T04:31:47.260Z,17.86
2022-08-09T04:34:18.970Z,17.88
2022-08-09T04:36:57.543Z,17.90
2022-08-09T04:39:24.362Z,17.91
2022-08-09T04:41:51.443Z,17.94
2022-08-09T04:44:18.426Z,17.99
2022-08-09T04:46:58.539Z,18.05
2022-08-09T04:49:40.070Z,18.09
2022-08-09T04:52:18.539Z,18.11
2022-08-09T04:54:53.322Z,18.13
2022-08-09T04:57:21.491Z,18.20
2022-08-09T04:59:51.508Z,18.24
2022-08-09T05:02:18.915Z,18.26
2022-08-09T05:04:47.319Z,18.29
2022-08-09T05:07:19.385Z,18.30
2022-08-09T05:09:50.047Z,18.34
2022-08-09T05:12:17.532Z,18.39
2022-08-09T05:14:45.274Z,18.41
2022-08-09T05:17:15.349Z,18.40
2022-08-09T05:19:59.183Z,18.39
2022-08-09T05:22:33.356Z,18.43
2022-08-09T05:25:05.213Z,18.47
2022-08-09T05:27:32.053Z,18.53
2022-08-09T05:29:58.960Z,18.60
2022-08-09T05:32:26.674Z,18.65
2022-08-09T05:34:57.055Z,18.72
2022-08-09T05:37:23.979Z,18.79
2022-08-09T05:39:52.511Z,18.86
2022-08-09T05:42:21.930Z,18.92
2022-08-09T05:44:55.879Z,19.01
2022-08-09T05:47:25.338Z,19.09
2022-08-09T05:50:28.090Z,19.17
2022-08-09T05:52:44.368Z,19.26
2022-08-09T05:55:21.253Z,19.36
2022-08-09T05:57:56.904Z,19.43
2022-08-09T06:00:28.793Z,19.50
2022-08-09T06:03:00.406Z,19.59
2022-08-09T06:05:31.232Z,19.65
2022-08-09T06:08:19.507Z,19.70
2022-08-09T06:10:51.504Z,19.74
2022-08-09T06:13:20.845Z,19.75
2022-08-09T06:15:51.361Z,19.82
2022-08-09T06:18:19.555Z,19.87
2022-08-09T06:20:54.139Z,19.94
2022-08-09T06:23:55.577Z,20.04
2022-08-09T06:26:20.200Z,20.09
2022-08-09T06:28:47.472Z,20.20
2022-08-09T06:31:14.307Z,20.26
2022-08-09T06:33:42.076Z,20.32
2022-08-09T06:36:15.385Z,20.35
2022-08-09T06:38:49.895Z,20.37
2022-08-09T06:41:19.219Z,20.47
2022-08-09T06:43:48.605Z,20.55
2022-08-09T06:46:39.127Z,20.64
2022-08-09T06:49:04.877Z,20.76
2022-08-09T06:51:33.739Z,20.86
2022-08-09T06:54:09.134Z,21.00
2022-08-09T06:56:45.434Z,21.07
2022-08-09T07:00:51.343Z,21.21
2022-08-09T07:02:03.767Z,21.59
2022-08-09T07:04:32.222Z,22.28
2022-08-09T07:07:00.091Z,23.88
2022-08-09T07:09:57.375Z,25.37
2022-08-09T07:12:18.777Z,27.22
2022-08-09T07:14:51.013Z,28.97
2022-08-09T07:17:20.082Z,30.02
2022-08-09T07:19:48.243Z,30.88
2022-08-09T07:22:18.721Z,31.67
2022-08-09T07:25:05.595Z,32.73
2022-08-09T07:27:43.227Z,32.82
2022-08-09T07:30:21.794Z,32.25
2022-08-09T07:32:52.138Z,32.33
2022-08-09T07:35:19.335Z,33.23
2022-08-09T07:37:47.963Z,33.98
2022-08-09T07:40:20.356Z,34.52
2022-08-09T07:42:54.915Z,35.26
2022-08-09T07:45:37.367Z,36.07
2022-08-09T07:48:08.262Z,36.13
2022-08-09T07:51:02.976Z,36.65
2022-08-09T07:54:05.178Z,36.75
2022-08-09T07:56:27.445Z,37.34
2022-08-09T07:58:55.678Z,37.67
2022-08-09T08:01:33.814Z,38.30
2022-08-09T08:04:03.051Z,38.79
2022-08-09T08:06:32.708Z,38.96
2022-08-09T08:09:05.336Z,38.77
2022-08-09T08:12:12.144Z,39.07
2022-08-09T08:14:33.112Z,39.39
2022-08-09T08:17:07.883Z,39.56
2022-08-09T08:19:38.816Z,39.90
2022-08-09T08:22:05.776Z,40.41
2022-08-09T08:24:40.609Z,39.88
2022-08-09T08:27:16.683Z,38.34
2022-08-09T08:29:48.542Z,39.57
2022-08-09T08:32:19.031Z,40.61
2022-08-09T08:34:55.548Z,41.71
2022-08-09T08:37:41.548Z,41.87
2022-08-09T08:40:13.941Z,42.35
2022-08-09T08:42:43.633Z,42.39
2022-08-09T08:45:16.659Z,41.60
2022-08-09T08:47:45.345Z,41.79
2022-08-09T08:50:18.274Z,41.39
2022-08-09T08:52:59.015Z,41.74
2022-08-09T08:55:27.890Z,41.84
2022-08-09T08:57:58.569Z,41.23
2022-08-09T09:00:30.483Z,41.35
2022-08-09T09:03:11.068Z,42.18
2022-08-09T09:06:00.468Z,42.17
2022-08-09T09:08:37.972Z,42.84
2022-08-09T09:11:17.683Z,42.82
2022-08-09T09:13:57.528Z,41.25
2022-08-09T09:16:34.063Z,41.80
2022-08-09T09:22:03.639Z,40.79
2022-08-09T09:24:34.717Z,40.51
2022-08-09T09:27:03.238Z,40.53
2022-08-09T09:29:58.011Z,42.40
2022-08-09T09:32:34.397Z,42.76
2022-08-09T09:35:15.676Z,43.50
2022-08-09T09:37:45.908Z,43.51
2022-08-09T09:40:13.169Z,43.09
2022-08-09T09:42:46.083Z,44.10
2022-08-09T09:45:14.505Z,41.86
2022-08-09T09:47:58.314Z,37.37
2022-08-09T09:50:51.214Z,35.05
2022-08-09T09:53:43.680Z,34.36
2022-08-09T09:56:19.882Z,38.02
2022-08-09T09:58:56.407Z,38.27
2022-08-09T10:01:37.451Z,38.65
2022-08-09T10:04:15.990Z,38.83
2022-08-09T10:06:51.779Z,36.72
2022-08-09T10:09:27.542Z,35.35
2022-08-09T10:12:14.748Z,38.89
2022-08-09T10:14:48.401Z,40.32
2022-08-09T10:17:51.134Z,38.87
2022-08-09T10:20:17.398Z,38.91
2022-08-09T10:23:00.015Z,35.56
2022-08-09T10:25:34.906Z,34.01
2022-08-09T10:28:14.999Z,34.23
2022-08-09T10:32:21.030Z,36.50
2022-08-09T10:34:09.951Z,38.04
2022-08-09T10:36:22.199Z,36.65
2022-08-09T10:38:56.415Z,34.20
2022-08-09T10:41:26.787Z,32.94
2022-08-09T10:43:59.487Z,32.47
2022-08-09T10:47:03.999Z,32.84
2022-08-09T10:50:09.862Z,33.22
2022-08-09T10:53:10.716Z,31.70
2022-08-09T10:55:58.539Z,30.92
2022-08-09T10:58:34.557Z,34.96
2022-08-09T11:03:11.028Z,36.02
2022-08-09T11:04:31.645Z,36.33
2022-08-09T11:07:00.214Z,39.38
2022-08-09T11:09:48.217Z,41.69
2022-08-09T11:12:21.856Z,43.36
2022-08-09T11:14:57.629Z,44.73
2022-08-09T11:17:27.253Z,45.56
2022-08-09T11:20:22.101Z,44.80
2022-08-09T11:22:55.758Z,40.42
2022-08-09T11:25:44.694Z,37.68
2022-08-09T11:28:53.999Z,34.76
2022-08-09T11:31:39.764Z,33.97
2022-08-09T11:34:20.402Z,33.37
2022-08-09T11:36:48.933Z,32.22
2022-08-09T11:39:16.662Z,31.62
2022-08-09T11:41:43.689Z,32.64
2022-08-09T11:44:12.087Z,34.75
2022-08-09T11:46:58.087Z,33.72
2022-08-09T11:50:54.037Z,33.42
2022-08-09T11:53:16.061Z,32.59
2022-08-09T11:55:53.343Z,32.55
2022-08-09T11:58:30.110Z,34.84
2022-08-09T12:01:09.058Z,36.30
2022-08-09T12:03:59.213Z,38.10
2022-08-09T12:06:32.532Z,35.76
2022-08-09T12:09:15.237Z,34.75
2022-08-09T12:12:04.258Z,37.07
2022-08-09T12:14:41.007Z,38.72
2022-08-09T12:17:27.640Z,40.04
2022-08-09T12:20:04.176Z,38.08
2022-08-09T12:22:31.628Z,36.11
2022-08-09T12:25:15.924Z,34.51
2022-08-09T12:29:12.529Z,33.94
2022-08-09T12:30:36.162Z,35.41
2022-08-09T12:33:07.331Z,35.72
2022-08-09T12:35:40.787Z,38.19
2022-08-09T12:38:29.601Z,38.55
2022-08-09T12:41:04.804Z,37.16
2022-08-09T12:44:06.007Z,36.00
2022-08-09T12:46:25.641Z,34.99
2022-08-09T12:48:55.522Z,34.08
2022-08-09T12:51:52.618Z,33.02
2022-08-09T12:54:13.169Z,32.21
2022-08-09T12:56:51.231Z,31.77
2022-08-09T12:59:23.189Z,31.27
2022-08-09T13:01:59.112Z,31.21
2022-08-09T13:04:37.794Z,31.29
2022-08-09T13:07:19.697Z,31.61
2022-08-09T13:09:55.714Z,31.50
2022-08-09T13:12:28.206Z,31.11
2022-08-09T13:15:07.721Z,30.82
2022-08-09T13:18:03.480Z,30.60
2022-08-09T13:21:03.764Z,30.54
2022-08-09T13:24:16.966Z,30.89
2022-08-09T13:26:37.582Z,30.89
2022-08-09T13:29:08.859Z,31.26
2022-08-09T13:32:16.054Z,31.44
2022-08-09T13:34:42.258Z,31.25
2022-08-09T13:37:09.202Z,31.14
2022-08-09T13:41:46.061Z,31.27
2022-08-09T13:42:26.591Z,31.57
2022-08-09T13:44:53.677Z,31.22
2022-08-09T13:47:33.151Z,31.02
2022-08-09T13:50:18.154Z,30.82
2022-08-09T13:52:57.172Z,30.29
2022-08-09T13:55:24.499Z,30.01
2022-08-09T13:57:59.366Z,29.88
2022-08-09T14:00:28.642Z,29.78
2022-08-09T14:03:03.976Z,29.49
2022-08-09T14:06:01.414Z,29.40
2022-08-09T14:08:31.537Z,29.88
2022-08-09T14:10:59.446Z,30.07
2022-08-09T14:14:15.769Z,29.96
2022-08-09T14:16:17.820Z,29.73
2022-08-09T14:18:50.149Z,29.50
2022-08-09T14:21:23.307Z,29.59
2022-08-09T14:23:57.103Z,29.46
2022-08-09T14:26:30.128Z,29.15
2022-08-09T14:29:00.813Z,29.07
2022-08-09T14:31:35.927Z,29.19
2022-08-09T14:34:17.349Z,29.63
2022-08-09T14:36:44.469Z,29.87
2022-08-09T14:39:11.593Z,29.89
2022-08-09T14:41:41.781Z,29.78
2022-08-09T14:44:09.641Z,29.75
2022-08-09T14:47:03.190Z,29.79
2022-08-09T14:49:26.874Z,29.79
2022-08-09T14:51:58.860Z,29.71
2022-08-09T14:54:28.309Z,29.68
2022-08-09T14:56:58.962Z,29.51
2022-08-09T14:59:28.892Z,29.35
2022-08-09T15:01:57.017Z,29.30
2022-08-09T15:04:25.555Z,29.12
2022-08-09T15:10:03.479Z,29.11
2022-08-09T15:12:25.110Z,29.02
2022-08-09T15:14:54.490Z,28.97
2022-08-09T15:17:21.339Z,28.93
2022-08-09T15:19:59.768Z,28.92
2022-08-09T15:22:29.312Z,28.98
2022-08-09T15:24:55.990Z,28.88
2022-08-09T15:27:22.752Z,28.88
2022-08-09T15:30:55.521Z,28.99
2022-08-09T15:32:36.526Z,28.99
2022-08-09T15:35:18.257Z,28.97
2022-08-09T15:37:57.146Z,28.75
2022-08-09T15:40:43.644Z,28.63
2022-08-09T15:43:14.009Z,28.45
2022-08-09T15:46:07.616Z,28.19
2022-08-09T15:48:30.623Z,27.91
2022-08-09T15:51:01.131Z,27.72
2022-08-09T15:54:04.972Z,27.67
2022-08-09T15:56:29.408Z,27.69
2022-08-09T15:58:58.670Z,27.73
2022-08-09T16:01:25.839Z,27.76
2022-08-09T16:03:52.649Z,27.75
2022-08-09T16:06:35.326Z,27.76
2022-08-09T16:09:05.877Z,27.73
2022-08-09T16:11:33.766Z,27.79
2022-08-09T16:14:06.859Z,27.82
2022-08-09T16:16:42.060Z,27.75
2022-08-09T16:19:13.839Z,27.75
2022-08-09T16:21:41.671Z,27.65
2022-08-09T16:24:20.115Z,27.48
2022-08-09T16:27:00.108Z,27.35
2022-08-09T16:29:37.984Z,27.20
2022-08-09T16:32:35.233Z,27.07
2022-08-09T16:35:02.920Z,26.90
2022-08-09T16:37:54.963Z,26.79
2022-08-09T16:40:29.768Z,26.59
2022-08-09T16:43:09.774Z,26.36
2022-08-09T16:45:41.710Z,26.17
2022-08-09T16:48:39.961Z,26.06
2022-08-09T16:50:59.692Z,25.88
2022-08-09T16:53:36.711Z,25.73
2022-08-09T16:56:10.072Z,25.65
2022-08-09T16:58:39.587Z,25.68
2022-08-09T17:01:09.963Z,25.72
2022-08-09T17:03:37.586Z,25.77
2022-08-09T17:06:28.135Z,25.86
2022-08-09T17:09:04.856Z,25.88
2022-08-09T17:11:42.470Z,25.94
2022-08-09T17:14:26.676Z,25.96
2022-08-09T17:17:02.186Z,25.99
2022-08-09T17:19:47.542Z,26.01
2022-08-09T17:22:25.130Z,25.96
2022-08-09T17:25:03.216Z,25.85
2022-08-09T17:27:34.450Z,25.82
2022-08-09T17:30:07.200Z,25.77
2022-08-09T17:32:44.183Z,25.63
2022-08-09T17:35:13.214Z,25.56
2022-08-09T17:38:14.445Z,25.46
2022-08-09T17:40:33.244Z,25.30
2022-08-09T17:43:11.210Z,25.23
2022-08-09T17:46:02.919Z,25.06
2022-08-09T17:48:32.099Z,24.93
2022-08-09T17:51:08.943Z,24.77
2022-08-09T17:53:52.175Z,24.64
2022-08-09T17:56:27.589Z,24.55
2022-08-09T17:59:01.089Z,24.54
2022-08-09T18:02:03.475Z,24.45
2022-08-09T18:04:19.632Z,24.33
2022-08-09T18:06:54.631Z,24.32
2022-08-09T18:09:40.090Z,24.25
2022-08-09T18:12:19.486Z,24.26
2022-08-09T18:14:53.805Z,24.17
2022-08-09T18:18:02.550Z,24.11
2022-08-09T18:21:01.752Z,24.01
2022-08-09T18:23:05.146Z,23.93
2022-08-09T18:25:50.562Z,23.85
2022-08-09T18:30:42.518Z,23.77
2022-08-09T18:31:09.117Z,23.71
2022-08-09T18:33:36.306Z,23.67
2022-08-09T18:36:03.755Z,23.71
2022-08-09T18:38:30.554Z,23.76
2022-08-09T18:40:58.448Z,23.75
2022-08-09T18:43:25.488Z,23.75
2022-08-09T18:46:49.338Z,23.78
2022-08-09T18:48:42.511Z,23.81
2022-08-09T18:51:09.579Z,23.85
2022-08-09T18:53:56.515Z,23.84
2022-08-09T18:56:27.111Z,23.78
2022-08-09T18:58:56.492Z,23.69
2022-08-09T19:01:24.130Z,23.62
2022-08-09T19:04:00.849Z,23.59
2022-08-09T19:06:33.122Z,23.57
2022-08-09T19:09:03.111Z,23.56
2022-08-09T19:11:38.022Z,23.49
2022-08-09T19:14:08.129Z,23.43
2022-08-09T19:16:37.977Z,23.42
2022-08-09T19:19:23.501Z,23.47
2022-08-09T19:22:04.913Z,23.44
2022-08-09T19:24:38.274Z,23.45
2022-08-09T19:27:28.364Z,23.46
2022-08-09T19:30:21.119Z,23.40
2022-08-09T19:32:45.528Z,23.36
2022-08-09T19:35:16.709Z,23.28
2022-08-09T19:37:56.065Z,23.24
2022-08-09T19:40:33.375Z,23.22
2022-08-09T19:43:05.403Z,23.16
2022-08-09T19:45:39.206Z,23.10
2022-08-09T19:48:11.849Z,23.01
2022-08-09T19:50:49.031Z,22.90
2022-08-09T19:53:20.954Z,22.80
2022-08-09T19:56:05.939Z,22.72
2022-08-09T19:58:34.902Z,22.64
2022-08-09T20:01:03.270Z,22.63
2022-08-09T20:04:16.900Z,22.58
2022-08-09T20:06:22.429Z,22.58
2022-08-09T20:08:57.145Z,22.65
2022-08-09T20:11:26.721Z,22.63
2022-08-09T20:13:55.338Z,22.54
2022-08-09T20:16:37.094Z,22.51
2022-08-09T20:19:47.649Z,22.50
2022-08-09T20:22:00.306Z,22.51
2022-08-09T20:24:29.447Z,22.49
2022-08-09T20:27:02.604Z,22.40
2022-08-09T20:29:37.736Z,22.33
2022-08-09T20:32:28.627Z,22.27
2022-08-09T20:34:57.510Z,22.25
2022-08-09T20:37:24.348Z,22.23
2022-08-09T20:40:16.632Z,22.16
2022-08-09T20:42:38.236Z,22.07
2022-08-09T20:46:01.488Z,22.03
2022-08-09T20:47:55.119Z,21.94
2022-08-09T20:50:47.344Z,21.85
2022-08-09T20:53:18.531Z,21.81
2022-08-09T20:56:00.587Z,21.82
2022-08-09T20:58:28.719Z,21.85
2022-08-09T21:01:32.897Z,21.87
2022-08-09T21:05:48.878Z,21.92
2022-08-09T21:07:11.273Z,21.85
2022-08-09T21:13:59.426Z,21.66
2022-08-09T21:16:32.598Z,21.69
2022-08-09T21:25:59.185Z,21.57
2022-08-09T21:28:56.921Z,21.52
2022-08-09T21:31:57.768Z,21.49
2022-08-09T21:35:28.903Z,21.55
2022-08-09T21:39:41.682Z,21.52
2022-08-09T21:42:38.806Z,21.45
2022-08-09T21:45:26.004Z,21.40
2022-08-09T21:47:59.415Z,21.38
2022-08-09T21:50:38.595Z,21.40
2022-08-09T21:53:22.413Z,21.42
2022-08-09T21:55:55.454Z,21.41
2022-08-09T21:58:30.954Z,21.40
2022-08-09T22:00:58.067Z,21.37
2022-08-09T22:03:25.928Z,21.34
2022-08-09T22:05:54.125Z,21.29
2022-08-09T22:08:24.522Z,21.25
2022-08-09T22:11:50.054Z,21.18
2022-08-09T22:13:43.281Z,21.08
2022-08-09T22:16:11.661Z,20.99
2022-08-09T22:18:53.571Z,20.91
2022-08-09T22:21:49.717Z,20.85
2022-08-09T22:24:17.140Z,20.75
2022-08-09T22:26:51.104Z,20.64
2022-08-09T22:29:22.973Z,20.55
2022-08-09T22:31:56.746Z,20.49
2022-08-09T22:34:26.304Z,20.43
2022-08-09T22:36:58.800Z,20.40
2022-08-09T22:39:56.413Z,20.31
2022-08-09T22:42:20.638Z,20.26
2022-08-09T22:45:02.230Z,20.16
2022-08-09T22:48:17.817Z,19.84
2022-08-09T22:50:29.700Z,19.86
2022-08-09T22:52:58.144Z,19.98
2022-08-09T22:55:39.303Z,20.06
2022-08-09T22:58:31.004Z,20.00
2022-08-09T23:01:02.625Z,19.86
2022-08-09T23:04:02.827Z,19.69
2022-08-09T23:06:32.621Z,19.44
2022-08-09T23:09:04.174Z,19.39
2022-08-09T23:11:30.816Z,19.51
2022-08-09T23:13:58.796Z,19.62
2022-08-09T23:16:25.559Z,19.62
2022-08-09T23:18:52.240Z,19.60
2022-08-09T23:21:25.223Z,19.63
2022-08-09T23:24:05.019Z,19.65
2022-08-09T23:26:37.657Z,19.73
2022-08-09T23:29:13.854Z,19.72
2022-08-09T23:31:41.455Z,19.70
2022-08-09T23:34:08.361Z,19.68
2022-08-09T23:36:35.739Z,19.70
2022-08-09T23:39:03.908Z,19.69
2022-08-09T23:41:30.925Z,19.71
2022-08-09T23:43:59.705Z,19.75
2022-08-09T23:46:28.571Z,19.66
2022-08-09T23:48:55.832Z,19.48
2022-08-09T23:51:22.732Z,19.39
2022-08-09T23:53:50.532Z,19.22
2022-08-09T23:56:39.528Z,19.16
2022-08-09T23:59:06.346Z,19.26
